Time;durP1;ratioP1;P1;durP2;ratioP2;P2;SDS_P1;SDS_P2;PMS_P1;PMS_P2;Temp;Humidity;BMP_temperature;BMP_pressure;BME280_temperature;BME280_humidity;BME280_pressure;Samples;Min_cycle;Max_cycle;Signal;HPM_P1;HPM_P2
2022/01/02 00:02:21;;;;;;;856.03;788.33;;;9.80;99.90;;;;;;5014187;28;20457;-82
2022/01/02 00:04:50;;;;;;;854.33;787.40;;;9.80;99.90;;;;;;5023318;28;20468;-82
2022/01/02 00:07:18;;;;;;;849.90;783.60;;;9.90;99.90;;;;;;5028569;28;20536;-83
2022/01/02 00:09:51;;;;;;;847.70;782.33;;;9.80;99.90;;;;;;5013732;28;20461;-82
2022/01/02 00:12:21;;;;;;;847.93;783.80;;;9.80;99.90;;;;;;5017646;28;20452;-83
2022/01/02 00:14:49;;;;;;;849.77;786.07;;;9.80;99.90;;;;;;5029645;28;20492;-82
2022/01/02 00:17:22;;;;;;;844.10;781.47;;;9.80;99.90;;;;;;5013282;28;20492;-83
2022/01/02 00:19:53;;;;;;;849.33;786.73;;;9.70;99.90;;;;;;5015142;28;20453;-82
2022/01/02 00:22:25;;;;;;;837.13;774.60;;;9.80;99.90;;;;;;5035863;28;20456;-82
2022/01/02 00:24:57;;;;;;;839.03;776.50;;;9.80;99.90;;;;;;5034693;28;20464;-82
2022/01/02 00:27:24;;;;;;;839.57;776.50;;;9.80;99.90;;;;;;5017434;28;20465;-83
2022/01/02 00:29:52;;;;;;;842.97;779.40;;;9.80;99.90;;;;;;5017009;28;20457;-82
2022/01/02 00:32:19;;;;;;;838.87;775.67;;;9.80;99.90;;;;;;5016941;28;20481;-82
2022/01/02 00:34:51;;;;;;;837.73;774.23;;;9.70;99.90;;;;;;5035330;28;20850;-82
2022/01/02 00:37:18;;;;;;;832.17;768.97;;;9.70;99.90;;;;;;5036884;28;20459;-83
2022/01/02 00:39:45;;;;;;;837.93;775.07;;;9.70;99.90;;;;;;5019233;28;20535;-83
2022/01/02 00:42:19;;;;;;;844.70;780.87;;;9.70;99.90;;;;;;5017934;28;20450;-83
2022/01/02 00:44:58;;;;;;;835.60;771.47;;;9.70;99.90;;;;;;5037199;28;20468;-83
2022/01/02 00:47:35;;;;;;;834.97;770.87;;;9.50;99.90;;;;;;5035753;28;20448;-82
2022/01/02 00:50:08;;;;;;;845.30;780.83;;;9.70;99.90;;;;;;5016791;28;20459;-82
2022/01/02 00:52:38;;;;;;;839.23;774.83;;;9.60;99.90;;;;;;5019757;28;20455;-82
2022/01/02 00:55:07;;;;;;;839.30;774.90;;;9.60;99.90;;;;;;5037569;28;20675;-83
2022/01/02 00:57:37;;;;;;;838.17;773.50;;;9.60;99.90;;;;;;5035227;28;20448;-82
2022/01/02 01:00:09;;;;;;;841.67;776.50;;;9.60;99.90;;;;;;5018841;28;20961;-82
2022/01/02 01:02:41;;;;;;;841.27;776.50;;;9.60;99.90;;;;;;5019352;28;20457;-82
2022/01/02 01:05:09;;;;;;;839.67;774.87;;;9.50;99.90;;;;;;5036037;28;20547;-83
2022/01/02 01:07:37;;;;;;;849.87;784.37;;;9.50;99.90;;;;;;5034496;28;21029;-83
2022/01/02 01:10:08;;;;;;;853.37;787.07;;;9.50;99.90;;;;;;5019448;28;20517;-83
2022/01/02 01:12:37;;;;;;;842.50;776.83;;;9.50;99.90;;;;;;5022989;28;20464;-83
2022/01/02 01:15:07;;;;;;;852.13;786.17;;;9.60;99.90;;;;;;5039939;28;20531;-83
2022/01/02 01:17:36;;;;;;;841.50;776.17;;;9.50;99.90;;;;;;5060193;28;20448;-83
2022/01/02 01:20:04;;;;;;;844.30;779.60;;;9.60;99.90;;;;;;5058226;28;20447;-83
2022/01/02 01:22:31;;;;;;;839.80;776.50;;;9.60;99.90;;;;;;5059306;28;20474;-83
2022/01/02 01:24:58;;;;;;;829.13;767.37;;;9.60;99.90;;;;;;5022728;28;20540;-83
2022/01/02 01:27:27;;;;;;;824.20;764.30;;;9.60;99.90;;;;;;5025542;28;20452;-83
2022/01/02 01:29:56;;;;;;;806.10;749.00;;;9.70;99.90;;;;;;5038231;28;20815;-83
2022/01/02 01:32:23;;;;;;;811.23;754.27;;;9.70;99.90;;;;;;5038273;28;20460;-83
2022/01/02 01:34:52;;;;;;;794.13;738.73;;;9.70;99.90;;;;;;5038381;28;20571;-83
2022/01/02 01:37:19;;;;;;;766.80;713.10;;;9.80;99.90;;;;;;5037464;28;20540;-83
2022/01/02 01:39:46;;;;;;;739.20;688.50;;;9.70;99.90;;;;;;5037039;28;20456;-82
2022/01/02 01:42:13;;;;;;;720.50;672.70;;;9.80;99.90;;;;;;5036863;28;20520;-83
2022/01/02 01:45:28;;;;;;;710.60;663.40;;;9.90;99.90;;;;;;5037552;28;20468;-83
2022/01/02 01:47:40;;;;;;;677.57;635.03;;;9.90;99.90;;;;;;5038505;28;20448;-83
2022/01/02 01:50:08;;;;;;;669.20;628.93;;;9.90;99.90;;;;;;5038514;28;20555;-83
2022/01/02 01:52:35;;;;;;;643.80;606.50;;;10.00;99.90;;;;;;5036657;28;20470;-83
2022/01/02 01:55:02;;;;;;;660.10;620.67;;;10.10;99.90;;;;;;5038211;28;20482;-83
2022/01/02 01:57:29;;;;;;;674.23;634.23;;;10.00;99.90;;;;;;5037849;28;20449;-82
2022/01/02 01:59:57;;;;;;;663.80;624.60;;;10.00;99.90;;;;;;5037484;28;20971;-82
2022/01/02 02:02:24;;;;;;;667.00;627.10;;;10.00;99.90;;;;;;5037278;28;20471;-83
2022/01/02 02:04:52;;;;;;;672.53;632.93;;;10.00;99.90;;;;;;5036551;28;20980;-83
2022/01/02 02:07:27;;;;;;;669.30;630.10;;;10.00;99.90;;;;;;5036060;28;20455;-83
2022/01/02 02:10:04;;;;;;;679.50;638.10;;;10.10;99.90;;;;;;5035643;28;20456;-83
2022/01/02 02:12:31;;;;;;;687.87;646.47;;;10.00;99.90;;;;;;5034809;28;20452;-82
2022/01/02 02:15:00;;;;;;;677.00;636.23;;;10.10;99.90;;;;;;5035632;28;20567;-82
2022/01/02 02:17:28;;;;;;;698.07;655.87;;;10.00;99.90;;;;;;5035602;28;20455;-82
2022/01/02 02:19:59;;;;;;;694.43;652.23;;;10.10;99.90;;;;;;5036612;28;20457;-82
2022/01/02 02:22:26;;;;;;;705.27;662.30;;;10.00;99.90;;;;;;5038174;28;20452;-82
2022/01/02 02:24:56;;;;;;;704.27;660.87;;;10.00;99.90;;;;;;5040413;28;20472;-82
2022/01/02 02:27:24;;;;;;;687.87;645.47;;;9.90;99.90;;;;;;5038281;28;20826;-81
2022/01/02 02:29:50;;;;;;;697.17;654.30;;;10.00;99.90;;;;;;5038576;28;20456;-82
2022/01/02 02:32:17;;;;;;;686.13;644.20;;;10.00;99.90;;;;;;5037972;28;20480;-82
2022/01/02 02:34:44;;;;;;;689.57;646.77;;;10.00;99.90;;;;;;5039582;28;20480;-82
2022/01/02 02:37:12;;;;;;;692.27;649.80;;;10.00;99.90;;;;;;5038854;28;20447;-82
2022/01/02 02:39:39;;;;;;;704.80;660.70;;;10.00;99.90;;;;;;5039184;28;20452;-82
2022/01/02 02:42:14;;;;;;;702.03;657.07;;;10.00;99.90;;;;;;5037167;28;20448;-82
2022/01/02 02:44:41;;;;;;;702.47;657.60;;;9.90;99.90;;;;;;5035791;28;20467;-82
2022/01/02 02:49:52;;;;;;;704.07;658.90;;;10.00;99.90;;;;;;5038247;28;20460;-82
2022/01/02 02:52:34;;;;;;;689.50;646.17;;;10.00;99.90;;;;;;5036525;28;20463;-83
2022/01/02 02:55:00;;;;;;;685.53;643.20;;;10.10;99.90;;;;;;5036552;28;20476;-83
2022/01/02 02:57:27;;;;;;;674.97;633.90;;;10.10;99.90;;;;;;5037055;28;20467;-83
2022/01/02 02:59:54;;;;;;;671.47;631.57;;;10.10;99.90;;;;;;5037650;28;21110;-83
2022/01/02 03:02:21;;;;;;;659.83;620.20;;;10.20;99.90;;;;;;5036369;28;20460;-82
2022/01/02 03:04:47;;;;;;;665.40;625.60;;;10.10;99.90;;;;;;5037609;28;20475;-83
2022/01/02 03:07:15;;;;;;;680.27;639.27;;;10.10;99.90;;;;;;5038422;28;20579;-82
2022/01/02 03:09:50;;;;;;;693.97;652.10;;;10.10;99.90;;;;;;5094728;22;20491;-80
2022/01/02 03:12:18;;;;;;;711.47;667.50;;;10.10;99.90;;;;;;5034148;28;20454;-80
2022/01/02 03:14:45;;;;;;;710.53;666.03;;;10.10;99.90;;;;;;5034153;28;20551;-80
2022/01/02 03:17:12;;;;;;;714.90;669.87;;;10.10;99.90;;;;;;5034082;28;20448;-80
2022/01/02 03:19:38;;;;;;;721.90;676.10;;;10.10;99.90;;;;;;5033814;28;20479;-80
2022/01/02 03:22:07;;;;;;;717.17;670.97;;;10.10;99.90;;;;;;5033835;28;20462;-80
2022/01/02 03:24:34;;;;;;;720.60;674.10;;;10.00;99.90;;;;;;5034371;28;20473;-80
2022/01/02 03:27:02;;;;;;;721.03;674.53;;;10.10;99.90;;;;;;5034182;28;20452;-80
2022/01/02 03:29:29;;;;;;;722.90;676.10;;;10.00;99.90;;;;;;5033553;28;20982;-80
2022/01/02 03:31:56;;;;;;;726.33;678.47;;;10.10;99.90;;;;;;5034419;28;20948;-80
2022/01/02 03:34:22;;;;;;;727.10;679.20;;;10.10;99.90;;;;;;5033848;28;20448;-80
2022/01/02 03:36:49;;;;;;;730.93;682.83;;;10.00;99.90;;;;;;5034189;28;20475;-80
2022/01/02 03:39:16;;;;;;;737.20;688.63;;;10.00;99.90;;;;;;5031994;28;20979;-80
2022/01/02 03:41:43;;;;;;;742.83;693.97;;;10.00;99.90;;;;;;5033606;28;20463;-79
2022/01/02 03:44:11;;;;;;;739.90;690.37;;;10.00;99.90;;;;;;5032297;28;20455;-80
2022/01/02 03:46:37;;;;;;;739.43;690.17;;;10.00;99.90;;;;;;5034208;28;20836;-80
2022/01/02 03:49:04;;;;;;;732.30;684.10;;;10.00;99.90;;;;;;5015697;28;20449;-80
2022/01/02 03:51:31;;;;;;;712.50;665.97;;;10.00;99.90;;;;;;5014565;28;20997;-80
2022/01/02 03:53:58;;;;;;;718.43;671.83;;;10.00;99.90;;;;;;5030866;28;20987;-80
2022/01/02 03:56:24;;;;;;;707.53;662.40;;;10.10;99.90;;;;;;5037349;28;20483;-80
2022/01/02 03:58:51;;;;;;;694.87;651.43;;;10.10;99.90;;;;;;5023363;28;20476;-80
2022/01/02 04:01:19;;;;;;;706.63;662.77;;;10.10;99.90;;;;;;5018485;28;20854;-80
2022/01/02 04:03:46;;;;;;;699.60;656.50;;;10.10;99.90;;;;;;5031193;28;20465;-80
2022/01/02 04:06:13;;;;;;;707.33;663.47;;;10.10;99.90;;;;;;5037394;28;20451;-80
2022/01/02 04:08:39;;;;;;;709.53;665.27;;;10.10;99.90;;;;;;5019636;28;20449;-80
2022/01/02 04:11:06;;;;;;;704.17;660.37;;;10.10;99.90;;;;;;5017571;28;20886;-80
2022/01/02 04:13:33;;;;;;;690.70;648.47;;;10.10;99.90;;;;;;5037148;28;20457;-80
2022/01/02 04:15:59;;;;;;;688.97;646.83;;;10.10;99.90;;;;;;5037466;28;20478;-80
2022/01/02 04:18:27;;;;;;;699.13;656.43;;;10.10;99.90;;;;;;5018772;28;20455;-80
2022/01/02 04:20:54;;;;;;;711.43;667.27;;;10.10;99.90;;;;;;5017699;28;20484;-80
2022/01/02 04:23:21;;;;;;;710.63;665.87;;;10.10;99.90;;;;;;5034826;28;20817;-80
2022/01/02 04:25:47;;;;;;;712.73;668.00;;;10.10;99.90;;;;;;5037397;28;20456;-80
2022/01/02 04:28:14;;;;;;;722.13;676.37;;;10.10;99.90;;;;;;5025295;28;20490;-80
2022/01/02 04:30:41;;;;;;;720.33;674.07;;;10.10;99.90;;;;;;5037438;28;20499;-80
2022/01/02 04:33:08;;;;;;;724.77;677.97;;;10.20;99.90;;;;;;5022601;28;20449;-80
2022/01/02 04:35:36;;;;;;;729.07;681.47;;;10.10;99.90;;;;;;5021254;28;20468;-80
2022/01/02 04:38:02;;;;;;;722.73;675.27;;;10.10;99.90;;;;;;5029604;28;20460;-80
2022/01/02 04:40:29;;;;;;;724.07;675.73;;;10.10;99.90;;;;;;5031441;28;20912;-83
2022/01/02 04:42:56;;;;;;;737.60;687.77;;;10.00;99.90;;;;;;5020467;28;20958;-79
2022/01/02 04:45:22;;;;;;;759.50;707.13;;;10.10;99.90;;;;;;5020514;28;20449;-79
2022/01/02 04:47:49;;;;;;;772.77;719.70;;;10.00;99.90;;;;;;5036387;28;20452;-79
2022/01/02 04:50:16;;;;;;;777.30;724.00;;;10.00;99.90;;;;;;5041369;28;20478;-79
2022/01/02 04:52:44;;;;;;;773.30;719.87;;;10.00;99.90;;;;;;5056461;28;20834;-79
2022/01/02 04:55:11;;;;;;;784.97;729.77;;;10.10;99.90;;;;;;5036916;28;20459;-79
2022/01/02 04:57:37;;;;;;;794.40;738.00;;;10.00;99.90;;;;;;5030454;28;20464;-80
2022/01/02 05:00:05;;;;;;;799.43;741.33;;;10.10;99.90;;;;;;5031489;28;20468;-81
2022/01/02 05:02:32;;;;;;;816.83;757.20;;;10.00;99.90;;;;;;5028943;28;20452;-79
2022/01/02 05:04:58;;;;;;;831.63;770.37;;;10.10;99.90;;;;;;5041570;28;20458;-80
2022/01/02 05:07:25;;;;;;;841.77;779.27;;;10.00;99.90;;;;;;5055734;28;20452;-80
2022/01/02 05:09:53;;;;;;;848.87;784.37;;;10.00;99.90;;;;;;5041175;28;20476;-80
2022/01/02 05:12:20;;;;;;;853.73;787.57;;;10.00;99.90;;;;;;5035856;28;20979;-80
2022/01/02 05:14:47;;;;;;;853.37;786.87;;;10.00;99.90;;;;;;5037269;28;20945;-80
2022/01/02 05:17:13;;;;;;;853.30;785.50;;;10.00;99.90;;;;;;5037423;28;21027;-80
2022/01/02 05:19:40;;;;;;;855.53;787.63;;;10.00;99.90;;;;;;5037276;28;20475;-79
2022/01/02 05:22:07;;;;;;;859.17;792.30;;;10.00;99.90;;;;;;5050707;28;20971;-80
2022/01/02 05:24:34;;;;;;;851.93;784.43;;;9.90;99.90;;;;;;5056015;28;20451;-80
2022/01/02 05:27:02;;;;;;;865.57;797.77;;;10.00;99.90;;;;;;5054956;28;20451;-80
2022/01/02 05:29:28;;;;;;;862.67;794.10;;;10.00;99.90;;;;;;5055725;28;20454;-80
2022/01/02 05:31:55;;;;;;;867.63;799.10;;;10.00;99.90;;;;;;5056474;28;20451;-79
2022/01/02 05:34:22;;;;;;;869.80;801.30;;;10.00;99.90;;;;;;5057064;28;20955;-80
2022/01/02 05:36:49;;;;;;;866.47;797.57;;;9.90;99.90;;;;;;5056371;28;20479;-80
2022/01/02 05:39:17;;;;;;;855.20;785.83;;;10.00;99.90;;;;;;5054522;28;20451;-80
2022/01/02 05:41:45;;;;;;;859.67;791.90;;;10.00;99.90;;;;;;5055724;28;20880;-80
2022/01/02 05:44:13;;;;;;;853.00;784.60;;;10.00;99.90;;;;;;5054408;28;20461;-80
2022/01/02 05:46:41;;;;;;;859.03;791.70;;;10.00;99.90;;;;;;5055408;28;20454;-80
2022/01/02 05:49:08;;;;;;;863.80;795.80;;;10.00;99.90;;;;;;5053504;28;20452;-80
2022/01/02 05:51:35;;;;;;;860.57;792.77;;;10.00;99.90;;;;;;5035518;28;20468;-80
2022/01/02 05:54:01;;;;;;;863.47;794.37;;;10.00;99.90;;;;;;5036091;28;20452;-80
2022/01/02 05:56:28;;;;;;;845.60;776.50;;;10.10;99.90;;;;;;5035524;28;20487;-80
2022/01/02 05:58:55;;;;;;;844.13;775.07;;;10.00;99.90;;;;;;5034478;28;20448;-80
2022/01/02 06:01:23;;;;;;;836.43;766.63;;;10.00;99.90;;;;;;5034411;28;20483;-80
2022/01/02 06:03:50;;;;;;;843.47;772.90;;;10.00;99.90;;;;;;5036091;28;20968;-80
2022/01/02 06:06:17;;;;;;;848.47;778.63;;;10.00;99.90;;;;;;5034592;28;20452;-80
2022/01/02 06:08:44;;;;;;;833.00;763.70;;;10.00;99.90;;;;;;5039093;28;20464;-82
2022/01/02 06:11:25;;;;;;;843.57;773.57;;;9.90;99.90;;;;;;5021734;28;20491;-83
2022/01/02 06:13:52;;;;;;;838.40;769.60;;;10.00;99.90;;;;;;5019112;28;20449;-79
2022/01/02 06:16:19;;;;;;;836.60;768.80;;;10.00;99.90;;;;;;5014078;28;20475;-80
2022/01/02 06:18:47;;;;;;;826.23;758.63;;;10.00;99.90;;;;;;5015352;28;20463;-79
2022/01/02 06:21:14;;;;;;;819.73;751.47;;;10.00;99.90;;;;;;5030242;28;20464;-79
2022/01/02 06:23:41;;;;;;;823.00;754.60;;;10.00;99.90;;;;;;5025137;28;20452;-80
2022/01/02 06:26:07;;;;;;;836.17;767.37;;;9.90;99.90;;;;;;5016822;28;20450;-80
2022/01/02 06:28:34;;;;;;;839.63;770.00;;;10.00;99.90;;;;;;5014811;28;20985;-80
2022/01/02 06:31:01;;;;;;;843.87;774.40;;;10.00;99.90;;;;;;5015726;28;20485;-80
2022/01/02 06:33:27;;;;;;;843.47;773.07;;;9.90;99.90;;;;;;5024577;28;20453;-80
2022/01/02 06:35:55;;;;;;;853.13;782.80;;;9.90;99.90;;;;;;5020762;28;20473;-80
2022/01/02 06:38:23;;;;;;;847.67;777.37;;;9.90;99.90;;;;;;5027731;28;20453;-80
2022/01/02 06:40:50;;;;;;;853.10;782.30;;;9.90;99.90;;;;;;5053837;28;20475;-80
2022/01/02 06:43:17;;;;;;;858.70;788.47;;;9.90;99.90;;;;;;5030357;28;21158;-80
2022/01/02 06:45:44;;;;;;;866.23;795.93;;;10.00;99.90;;;;;;5020406;28;20987;-80
2022/01/02 06:48:11;;;;;;;849.90;780.67;;;9.90;99.90;;;;;;5033363;28;20533;-80
2022/01/02 06:50:39;;;;;;;847.67;780.87;;;10.00;99.90;;;;;;5027849;28;20853;-79
2022/01/02 06:53:07;;;;;;;852.00;783.40;;;10.00;99.90;;;;;;5051712;28;20454;-80
2022/01/02 06:55:34;;;;;;;852.43;782.97;;;10.00;99.90;;;;;;5036053;28;20988;-80
2022/01/02 06:58:00;;;;;;;844.43;776.40;;;10.00;99.90;;;;;;5032253;28;20463;-80
2022/01/02 07:00:27;;;;;;;833.47;765.37;;;10.00;99.90;;;;;;5021759;28;20480;-80
2022/01/02 07:02:54;;;;;;;843.40;775.07;;;10.10;99.90;;;;;;5046162;28;20447;-80
2022/01/02 07:05:21;;;;;;;837.40;769.73;;;10.00;99.90;;;;;;5054355;28;20459;-79
2022/01/02 07:07:47;;;;;;;840.07;773.27;;;10.10;99.90;;;;;;5031617;28;20837;-80
2022/01/02 07:10:16;;;;;;;845.47;779.37;;;10.00;99.90;;;;;;5013698;28;20989;-80
2022/01/02 07:12:43;;;;;;;835.30;771.13;;;10.10;99.90;;;;;;5032020;28;20502;-81
2022/01/02 07:15:11;;;;;;;829.93;766.77;;;10.10;99.90;;;;;;5033608;28;20456;-80
2022/01/02 07:17:38;;;;;;;833.50;769.70;;;10.10;99.90;;;;;;5017591;28;20477;-81
2022/01/02 07:20:06;;;;;;;830.40;768.17;;;10.10;99.90;;;;;;5013815;28;20993;-81
2022/01/02 07:22:32;;;;;;;828.77;766.87;;;10.10;99.90;;;;;;5028957;28;20489;-81
2022/01/02 07:24:59;;;;;;;831.90;770.27;;;10.20;99.90;;;;;;5030481;28;20456;-80
2022/01/02 07:27:27;;;;;;;839.93;777.00;;;10.10;99.90;;;;;;5031506;28;20452;-80
2022/01/02 07:29:55;;;;;;;831.70;769.30;;;10.10;99.90;;;;;;5030904;28;20864;-79
2022/01/02 07:32:22;;;;;;;831.23;770.47;;;10.20;99.90;;;;;;5018151;28;20492;-80
2022/01/02 07:34:48;;;;;;;822.03;762.43;;;10.10;99.90;;;;;;5023007;28;20526;-79
2022/01/02 07:37:15;;;;;;;817.53;760.00;;;10.10;99.90;;;;;;5021747;28;20552;-80
2022/01/02 07:39:42;;;;;;;821.80;764.23;;;10.10;99.90;;;;;;5022029;28;20480;-81
2022/01/02 07:42:09;;;;;;;816.63;759.50;;;10.10;99.90;;;;;;5028185;28;20453;-81
2022/01/02 07:44:38;;;;;;;798.77;744.67;;;10.10;99.90;;;;;;5025050;28;20452;-81
2022/01/02 07:47:05;;;;;;;794.63;741.33;;;10.20;99.90;;;;;;5032635;28;20548;-81
2022/01/02 07:49:32;;;;;;;780.70;730.10;;;10.10;99.90;;;;;;5025679;28;20467;-80
2022/01/02 07:51:59;;;;;;;752.07;703.27;;;10.20;99.90;;;;;;5028777;28;20516;-81
2022/01/02 07:54:25;;;;;;;737.30;690.40;;;10.20;99.90;;;;;;5018585;28;20842;-80
2022/01/02 07:56:52;;;;;;;745.57;698.37;;;10.30;99.90;;;;;;5028006;28;20472;-80
2022/01/02 07:59:21;;;;;;;743.10;696.30;;;10.30;99.90;;;;;;5038199;28;20456;-80
2022/01/02 08:01:49;;;;;;;762.03;713.20;;;10.20;99.90;;;;;;5028657;28;20972;-80
2022/01/02 08:04:16;;;;;;;762.30;713.20;;;10.20;99.90;;;;;;5022925;28;20452;-79
2022/01/02 08:06:43;;;;;;;757.40;709.27;;;10.30;99.90;;;;;;5021814;28;20448;-80
2022/01/02 08:09:09;;;;;;;760.20;712.60;;;10.30;99.90;;;;;;5018407;28;20453;-80
2022/01/02 08:11:36;;;;;;;758.27;710.97;;;10.30;99.90;;;;;;5022509;28;20479;-80
2022/01/02 08:14:03;;;;;;;730.30;686.70;;;10.30;99.90;;;;;;5021870;28;20539;-79
2022/01/02 08:16:30;;;;;;;731.60;688.00;;;10.30;99.90;;;;;;5020580;28;20869;-80
2022/01/02 08:18:58;;;;;;;716.10;674.30;;;10.30;99.90;;;;;;5026550;28;20459;-79
2022/01/02 08:21:24;;;;;;;703.43;663.83;;;10.30;99.90;;;;;;5035037;28;20467;-80
2022/01/02 08:23:51;;;;;;;696.23;657.13;;;10.40;99.90;;;;;;5029084;28;20456;-80
2022/01/02 08:26:18;;;;;;;658.43;623.77;;;10.40;99.90;;;;;;5034292;28;20452;-80
2022/01/02 08:28:47;;;;;;;656.70;622.60;;;10.50;99.90;;;;;;5030988;28;20449;-80
2022/01/02 08:31:14;;;;;;;638.03;605.77;;;10.40;99.90;;;;;;5017400;28;20981;-79
2022/01/02 08:33:40;;;;;;;566.53;539.93;;;10.50;99.90;;;;;;5020491;28;20453;-80
2022/01/02 08:36:08;;;;;;;552.33;527.53;;;10.50;99.90;;;;;;5023876;28;20517;-80
2022/01/02 08:38:35;;;;;;;574.40;548.17;;;10.50;99.90;;;;;;5016950;28;20456;-79
2022/01/02 08:41:02;;;;;;;566.87;541.13;;;10.50;99.90;;;;;;5029672;28;20475;-81
2022/01/02 08:43:29;;;;;;;570.20;545.13;;;10.50;99.90;;;;;;5021779;28;20448;-80
2022/01/02 08:45:56;;;;;;;544.03;520.70;;;10.60;99.90;;;;;;5034528;28;20451;-80
2022/01/02 08:48:23;;;;;;;578.13;552.53;;;10.60;99.90;;;;;;5027322;28;20441;-80
2022/01/02 08:50:49;;;;;;;573.20;548.30;;;10.60;99.90;;;;;;5017268;28;20560;-80
2022/01/02 08:53:17;;;;;;;537.07;515.10;;;10.50;99.90;;;;;;5022724;28;20461;-80
2022/01/02 08:55:44;;;;;;;537.10;515.10;;;10.50;99.90;;;;;;5025845;28;20828;-80
2022/01/02 08:58:11;;;;;;;557.40;533.60;;;10.50;99.90;;;;;;5030226;28;20515;-80
2022/01/02 09:00:38;;;;;;;595.23;569.10;;;10.50;99.90;;;;;;5036263;28;20997;-80
2022/01/02 09:03:06;;;;;;;541.60;519.20;;;10.50;99.90;;;;;;5023808;28;20449;-80
2022/01/02 09:05:33;;;;;;;359.10;346.17;;;10.50;99.90;;;;;;5036209;28;20448;-80
2022/01/02 09:08:00;;;;;;;220.43;212.97;;;10.60;99.90;;;;;;5034791;28;20828;-80
2022/01/02 09:10:28;;;;;;;143.30;138.30;;;10.90;99.90;;;;;;5044646;22;20499;-80
2022/01/02 09:12:55;;;;;;;99.30;94.87;;;11.00;99.90;;;;;;5045613;28;20452;-80
2022/01/02 09:15:21;;;;;;;89.83;86.47;;;11.20;99.90;;;;;;5047529;28;20448;-80
2022/01/02 09:17:48;;;;;;;49.83;47.63;;;11.40;99.90;;;;;;5046041;28;20472;-80
2022/01/02 09:20:20;;;;;;;31.53;29.97;;;11.50;99.90;;;;;;5045921;28;20476;-79
2022/01/02 09:22:56;;;;;;;38.10;36.33;;;11.60;99.90;;;;;;5047431;28;20456;-80
2022/01/02 09:25:23;;;;;;;33.73;31.80;;;11.80;99.90;;;;;;5039454;28;20547;-80
2022/01/02 09:27:51;;;;;;;31.93;30.30;;;11.70;99.90;;;;;;5033602;28;20508;-80
2022/01/02 09:30:18;;;;;;;38.87;36.60;;;11.70;99.90;;;;;;5030897;28;20499;-80
2022/01/02 09:32:45;;;;;;;31.30;28.00;;;11.70;99.90;;;;;;5035218;28;20445;-80
2022/01/02 09:35:12;;;;;;;42.83;40.33;;;11.70;99.90;;;;;;5032204;28;20484;-80
2022/01/02 09:37:40;;;;;;;33.53;30.87;;;11.80;99.90;;;;;;5068059;28;20489;-80
2022/01/02 09:40:08;;;;;;;21.63;19.70;;;11.90;99.90;;;;;;5039151;28;20495;-80
2022/01/02 09:42:37;;;;;;;15.47;13.93;;;11.90;99.90;;;;;;5038969;28;20462;-80
2022/01/02 09:45:07;;;;;;;19.47;17.63;;;12.10;99.90;;;;;;5035335;28;20452;-80
2022/01/02 09:47:41;;;;;;;17.00;15.60;;;12.20;99.90;;;;;;5034311;28;20472;-81
2022/01/02 09:50:09;;;;;;;14.10;12.93;;;12.30;99.90;;;;;;5058783;28;20467;-80
2022/01/02 09:52:38;;;;;;;10.47;9.53;;;12.40;99.90;;;;;;5045314;28;20444;-80
2022/01/02 09:55:06;;;;;;;8.00;5.60;;;12.40;99.90;;;;;;5038910;28;20532;-80
2022/01/02 09:57:33;;;;;;;7.10;5.40;;;12.40;99.90;;;;;;5037706;28;20531;-80
2022/01/02 10:00:00;;;;;;;9.43;6.43;;;12.60;99.90;;;;;;5042040;28;20456;-80
2022/01/02 10:02:45;;;;;;;11.60;8.53;;;12.70;99.90;;;;;;5042762;28;20475;-80
2022/01/02 10:05:12;;;;;;;7.20;4.30;;;12.80;99.90;;;;;;5036827;28;20452;-80
2022/01/02 10:07:41;;;;;;;14.00;4.67;;;12.90;99.90;;;;;;5043821;28;20448;-81
2022/01/02 10:10:12;;;;;;;6.73;3.73;;;13.00;99.90;;;;;;5042858;28;20483;-81
2022/01/02 10:12:39;;;;;;;11.97;4.93;;;13.00;99.90;;;;;;5028291;28;20484;-81
2022/01/02 10:15:25;;;;;;;10.37;4.60;;;13.20;99.90;;;;;;5028718;28;20528;-81
2022/01/02 10:17:58;;;;;;;6.60;3.27;;;13.50;99.10;;;;;;5037926;28;20475;-80
2022/01/02 10:20:35;;;;;;;7.93;3.60;;;13.80;98.40;;;;;;5046492;28;20480;-80
2022/01/02 10:23:09;;;;;;;7.10;3.60;;;13.90;96.70;;;;;;5033081;28;20460;-80
2022/01/02 10:25:38;;;;;;;9.13;3.93;;;14.10;96.20;;;;;;5028807;28;20495;-80
2022/01/02 10:28:22;;;;;;;6.83;2.70;;;14.20;96.30;;;;;;5056387;28;20450;-80
2022/01/02 10:30:51;;;;;;;8.10;4.20;;;14.30;95.00;;;;;;5063087;28;20475;-80
2022/01/02 10:33:21;;;;;;;21.17;4.03;;;14.50;95.00;;;;;;5046488;28;20449;-81
2022/01/02 10:35:55;;;;;;;6.70;3.63;;;14.60;94.80;;;;;;5046072;28;20960;-80
2022/01/02 10:38:22;;;;;;;9.10;3.90;;;14.50;94.00;;;;;;5045729;28;20534;-80
2022/01/02 10:40:49;;;;;;;8.10;3.30;;;14.50;94.30;;;;;;5036318;28;20470;-81
2022/01/02 10:43:27;;;;;;;7.80;3.73;;;14.60;94.40;;;;;;5030695;28;20875;-81
2022/01/02 10:45:55;;;;;;;6.63;3.33;;;14.50;93.80;;;;;;5053597;28;20458;-80
2022/01/02 10:48:35;;;;;;;10.23;4.23;;;14.60;93.30;;;;;;5029498;28;20548;-80
2022/01/02 10:51:08;;;;;;;10.10;3.93;;;14.60;94.90;;;;;;5043302;28;21060;-80
2022/01/02 10:53:37;;;;;;;8.50;5.50;;;14.70;94.20;;;;;;5038874;28;20473;-80
2022/01/02 10:56:06;;;;;;;11.00;4.80;;;14.60;93.70;;;;;;5036305;28;20480;-81
2022/01/02 10:58:34;;;;;;;6.87;3.73;;;14.50;94.50;;;;;;5033763;28;20468;-80
2022/01/02 11:01:04;;;;;;;8.53;4.00;;;14.40;93.80;;;;;;5033814;28;20470;-81
2022/01/02 11:03:36;;;;;;;10.33;4.30;;;14.40;93.70;;;;;;5030109;28;20460;-81
2022/01/02 11:06:07;;;;;;;8.50;3.70;;;14.40;94.20;;;;;;5027720;28;20446;-80
2022/01/02 11:08:36;;;;;;;8.03;4.00;;;14.40;94.00;;;;;;5039316;28;20446;-80
2022/01/02 11:11:03;;;;;;;8.60;3.80;;;14.40;94.30;;;;;;5037859;28;20764;-80
2022/01/02 11:13:32;;;;;;;9.33;3.83;;;14.20;94.90;;;;;;5032853;28;20456;-80
2022/01/02 11:16:01;;;;;;;8.63;5.47;;;14.20;94.70;;;;;;5034905;28;20457;-80
2022/01/02 11:18:33;;;;;;;6.23;3.60;;;14.20;95.40;;;;;;5041804;28;20473;-79
2022/01/02 11:21:00;;;;;;;8.57;4.20;;;14.20;95.30;;;;;;5026138;28;20528;-80
2022/01/02 11:23:32;;;;;;;9.73;4.60;;;14.10;94.50;;;;;;5026556;28;20450;-80
2022/01/02 11:26:08;;;;;;;10.10;3.00;;;14.10;94.70;;;;;;5026161;28;20449;-80
2022/01/02 11:28:39;;;;;;;10.37;4.10;;;14.20;95.70;;;;;;5029814;28;20524;-81
2022/01/02 11:31:09;;;;;;;10.47;4.53;;;14.10;95.90;;;;;;5039548;28;20475;-80
2022/01/02 11:33:39;;;;;;;9.10;3.73;;;14.10;95.90;;;;;;5045565;28;20448;-80
2022/01/02 11:36:25;;;;;;;14.37;5.07;;;14.00;96.20;;;;;;5032338;28;20460;-80
2022/01/02 11:39:04;;;;;;;7.20;4.13;;;14.00;96.30;;;;;;5034416;28;20495;-79
2022/01/02 11:41:38;;;;;;;7.10;3.90;;;14.00;96.60;;;;;;5041056;28;20518;-80
2022/01/02 11:44:08;;;;;;;6.60;3.80;;;14.00;95.90;;;;;;5022090;28;20544;-80
2022/01/02 11:46:41;;;;;;;10.73;4.50;;;14.00;96.00;;;;;;5027030;28;20460;-79
2022/01/02 11:49:23;;;;;;;8.30;4.40;;;14.00;96.00;;;;;;5028133;28;20449;-80
2022/01/02 11:52:07;;;;;;;9.20;4.53;;;14.00;96.40;;;;;;5025575;28;20480;-80
2022/01/02 11:54:55;;;;;;;13.00;6.17;;;14.10;96.00;;;;;;5030015;28;20826;-79
2022/01/02 11:57:52;;;;;;;13.17;7.20;;;14.10;96.70;;;;;;5034020;28;20452;-80
2022/01/02 12:00:43;;;;;;;7.27;3.80;;;13.90;97.10;;;;;;5024192;28;20474;-80
2022/01/02 12:03:47;;;;;;;7.27;4.10;;;13.80;96.60;;;;;;5027540;28;20449;-80
2022/01/02 12:06:17;;;;;;;19.30;12.00;;;13.80;97.00;;;;;;5026291;28;20445;-80
2022/01/02 12:08:44;;;;;;;10.73;6.57;;;13.70;97.40;;;;;;5030863;28;21098;-81
2022/01/02 12:11:40;;;;;;;9.77;4.90;;;13.70;97.40;;;;;;5036275;28;20480;-80
2022/01/02 12:14:09;;;;;;;11.10;4.03;;;13.60;98.40;;;;;;5031916;28;20457;-80
2022/01/02 12:16:37;;;;;;;10.00;4.40;;;13.60;97.70;;;;;;5044250;28;20451;-80
2022/01/02 12:19:05;;;;;;;12.50;6.63;;;13.60;98.30;;;;;;5051943;28;20538;-80
2022/01/02 12:21:33;;;;;;;7.90;4.50;;;13.60;98.30;;;;;;5068634;28;20477;-80
2022/01/02 12:24:02;;;;;;;9.10;5.40;;;13.60;98.10;;;;;;5068795;28;20565;-80
2022/01/02 12:26:32;;;;;;;7.27;3.67;;;13.70;98.70;;;;;;5068757;28;20462;-80
2022/01/02 12:29:06;;;;;;;9.67;4.50;;;13.70;98.00;;;;;;5067770;28;20448;-80
2022/01/02 12:31:34;;;;;;;7.10;4.00;;;13.80;97.60;;;;;;5050670;28;20464;-80